createdAt,value
2018-09-17T00:00:03.640Z,6.78
2018-09-17T00:01:09.260Z,6.75
2018-09-17T00:02:13.292Z,6.87
2018-09-17T00:03:17.417Z,7.03
2018-09-17T00:04:21.506Z,6.42
2018-09-17T00:05:25.913Z,7.12
2018-09-17T00:06:29.998Z,7.22
2018-09-17T00:07:34.032Z,7.47
2018-09-17T00:08:38.324Z,6.90
2018-09-17T00:09:42.432Z,6.95
2018-09-17T00:10:46.493Z,6.85
2018-09-17T00:11:50.521Z,7.58
2018-09-17T00:12:55.017Z,7.08
2018-09-17T00:13:59.080Z,6.85
2018-09-17T00:15:03.189Z,6.65
2018-09-17T00:16:07.894Z,7.45
2018-09-17T00:17:12.088Z,7.40
2018-09-17T00:18:16.456Z,7.33
2018-09-17T00:19:20.525Z,6.83
2018-09-17T00:20:24.564Z,7.72
2018-09-17T00:21:28.729Z,7.30
2018-09-17T00:22:32.785Z,6.90
2018-09-17T00:23:36.823Z,7.67
2018-09-17T00:24:41.009Z,7.15
2018-09-17T00:25:45.383Z,6.90
2018-09-17T00:26:49.537Z,7.15
2018-09-17T00:27:53.632Z,6.72
2018-09-17T00:28:57.915Z,6.30
2018-09-17T00:30:02.035Z,6.60
2018-09-17T00:31:06.286Z,6.47
2018-09-17T00:32:10.467Z,7.12
2018-09-17T00:33:14.529Z,7.17
2018-09-17T00:34:19.009Z,6.95
2018-09-17T00:35:23.087Z,7.15
2018-09-17T00:36:27.134Z,6.75
2018-09-17T00:37:31.413Z,7.20
2018-09-17T00:38:35.583Z,6.70
2018-09-17T00:39:39.737Z,6.78
2018-09-17T00:40:43.798Z,6.87
2018-09-17T00:41:47.943Z,6.53
2018-09-17T00:42:52.030Z,7.00
2018-09-17T00:43:56.292Z,6.58
2018-09-17T00:45:00.412Z,6.90
2018-09-17T00:46:04.512Z,6.87
2018-09-17T00:47:08.580Z,6.95
2018-09-17T00:48:12.661Z,6.60
2018-09-17T00:49:16.774Z,7.25
2018-09-17T00:50:20.872Z,7.35
2018-09-17T00:51:25.250Z,6.80
2018-09-17T00:52:29.392Z,6.60
2018-09-17T00:53:33.760Z,7.03
2018-09-17T00:54:37.910Z,7.20
2018-09-17T00:55:42.054Z,7.03
2018-09-17T00:56:46.157Z,6.60
2018-09-17T00:57:50.322Z,6.87
2018-09-17T00:58:54.422Z,6.65
2018-09-17T00:59:58.747Z,7.20
2018-09-17T01:01:02.881Z,6.85
2018-09-17T01:02:07.176Z,6.92
2018-09-17T01:03:11.374Z,6.95
2018-09-17T01:04:15.503Z,7.25
2018-09-17T01:05:19.630Z,7.05
2018-09-17T01:06:23.719Z,7.10
2018-09-17T01:07:28.097Z,7.40
2018-09-17T01:08:32.204Z,6.97
2018-09-17T01:09:43.291Z,7.05
2018-09-17T01:10:47.330Z,6.90
2018-09-17T01:11:51.588Z,6.80
2018-09-17T01:12:55.669Z,6.75
2018-09-17T01:14:05.992Z,6.35
2018-09-17T01:15:15.992Z,6.78
2018-09-17T01:16:26.004Z,6.45
2018-09-17T01:17:36.120Z,6.45
2018-09-17T01:18:46.424Z,6.60
2018-09-17T01:19:50.654Z,6.45
2018-09-17T01:20:54.988Z,6.62
2018-09-17T01:21:59.419Z,6.37
2018-09-17T01:23:03.770Z,6.62
2018-09-17T01:24:08.138Z,6.58
2018-09-17T01:25:12.258Z,6.58
2018-09-17T01:26:16.545Z,6.20
2018-09-17T01:27:20.601Z,6.17
2018-09-17T01:28:24.810Z,6.40
2018-09-17T01:29:28.934Z,6.05
2018-09-17T01:30:33.110Z,6.47
2018-09-17T01:31:37.163Z,7.08
2018-09-17T01:32:41.545Z,6.12
2018-09-17T01:33:45.550Z,6.20
2018-09-17T01:34:49.602Z,5.92
2018-09-17T01:35:53.723Z,6.60
2018-09-17T01:36:57.833Z,6.00
2018-09-17T01:38:01.946Z,6.45
2018-09-17T01:39:08.721Z,6.47
2018-09-17T01:40:12.845Z,5.90
2018-09-17T01:41:17.293Z,5.55
2018-09-17T01:42:21.360Z,5.80
2018-09-17T01:43:25.410Z,5.70
2018-09-17T01:44:29.541Z,5.80
2018-09-17T01:45:33.618Z,6.08
2018-09-17T01:46:38.065Z,6.08
2018-09-17T01:47:42.263Z,6.50
2018-09-17T01:48:46.374Z,6.05
2018-09-17T01:49:50.484Z,6.62
2018-09-17T01:50:54.562Z,6.03
2018-09-17T01:51:58.664Z,5.97
2018-09-17T01:53:02.820Z,6.65
2018-09-17T01:54:07.080Z,6.20
2018-09-17T01:55:11.189Z,6.33
2018-09-17T01:56:15.314Z,6.22
2018-09-17T01:57:19.348Z,6.17
2018-09-17T01:58:23.452Z,6.47
2018-09-17T01:59:27.777Z,5.90
2018-09-17T02:00:31.883Z,6.33
2018-09-17T02:01:36.094Z,6.72
2018-09-17T02:02:40.213Z,6.17
2018-09-17T02:03:44.295Z,6.10
2018-09-17T02:04:48.429Z,6.00
2018-09-17T02:05:52.652Z,6.42
2018-09-17T02:06:56.718Z,6.40
2018-09-17T02:08:00.844Z,5.80
2018-09-17T02:09:05.680Z,6.22
2018-09-17T02:10:09.701Z,5.97
2018-09-17T02:11:13.741Z,5.87
2018-09-17T02:12:17.803Z,6.60
2018-09-17T02:13:21.893Z,6.47
2018-09-17T02:14:25.984Z,5.47
2018-09-17T02:15:30.048Z,6.15
2018-09-17T02:16:34.098Z,6.22
2018-09-17T02:17:38.212Z,5.92
2018-09-17T02:18:42.392Z,5.95
2018-09-17T02:19:46.550Z,6.03
2018-09-17T02:20:50.643Z,6.35
2018-09-17T02:21:54.744Z,6.00
2018-09-17T02:22:58.824Z,6.22
2018-09-17T02:24:02.940Z,5.70
2018-09-17T02:25:07.098Z,5.70
2018-09-17T02:26:11.424Z,5.70
2018-09-17T02:27:15.523Z,5.87
2018-09-17T02:28:19.706Z,6.00
2018-09-17T02:29:23.788Z,5.80
2018-09-17T02:30:27.920Z,5.70
2018-09-17T02:31:32.010Z,5.58
2018-09-17T02:32:36.133Z,5.53
2018-09-17T02:33:40.209Z,6.00
2018-09-17T02:34:44.330Z,6.40
2018-09-17T02:35:48.425Z,5.65
2018-09-17T02:36:52.817Z,6.20
2018-09-17T02:37:56.911Z,5.90
2018-09-17T02:39:01.084Z,5.78
2018-09-17T02:40:09.620Z,6.20
2018-09-17T02:41:13.763Z,6.60
2018-09-17T02:42:17.867Z,5.90
2018-09-17T02:43:21.927Z,6.10
2018-09-17T02:44:26.053Z,6.10
2018-09-17T02:45:30.094Z,6.17
2018-09-17T02:46:34.163Z,5.45
2018-09-17T02:47:38.332Z,5.80
2018-09-17T02:48:42.381Z,5.75
2018-09-17T02:49:46.590Z,5.87
2018-09-17T02:50:50.666Z,5.78
2018-09-17T02:51:54.743Z,5.50
2018-09-17T02:52:58.893Z,5.37
2018-09-17T02:54:03.002Z,5.70
2018-09-17T02:55:07.652Z,5.97
2018-09-17T02:56:11.692Z,5.65
2018-09-17T02:57:15.815Z,5.72
2018-09-17T02:58:19.938Z,5.55
2018-09-17T02:59:24.010Z,5.58
2018-09-17T03:00:28.089Z,5.90
2018-09-17T03:01:32.158Z,5.25
2018-09-17T03:02:36.257Z,6.03
2018-09-17T03:03:40.356Z,5.95
2018-09-17T03:04:44.466Z,6.15
2018-09-17T03:05:52.270Z,6.17
2018-09-17T03:06:56.469Z,5.58
2018-09-17T03:08:00.597Z,5.90
2018-09-17T03:09:06.319Z,6.20
2018-09-17T03:10:10.387Z,6.15
2018-09-17T03:11:14.554Z,5.87
2018-09-17T03:12:18.612Z,6.10
2018-09-17T03:13:22.748Z,5.85
2018-09-17T03:14:28.383Z,5.90
2018-09-17T03:15:54.563Z,5.92
2018-09-17T03:17:07.780Z,5.28
2018-09-17T03:18:11.862Z,5.50
2018-09-17T03:19:15.894Z,6.00
2018-09-17T03:20:19.998Z,5.33
2018-09-17T03:21:24.265Z,5.78
2018-09-17T03:22:28.380Z,5.62
2018-09-17T03:23:33.987Z,5.72
2018-09-17T03:24:38.356Z,5.83
2018-09-17T03:25:42.436Z,6.00
2018-09-17T03:26:46.551Z,6.17
2018-09-17T03:27:50.754Z,6.03
2018-09-17T03:28:54.862Z,6.08
2018-09-17T03:29:58.924Z,6.00
2018-09-17T03:31:03.001Z,5.92
2018-09-17T03:32:07.119Z,5.92
2018-09-17T03:33:11.221Z,6.00
2018-09-17T03:34:15.272Z,5.97
2018-09-17T03:35:19.429Z,6.05
2018-09-17T03:36:23.557Z,6.05
2018-09-17T03:37:28.423Z,5.90
2018-09-17T03:38:46.975Z,6.20
2018-09-17T03:39:51.113Z,5.67
2018-09-17T03:40:55.249Z,5.30
2018-09-17T03:41:59.304Z,5.87
2018-09-17T03:43:03.346Z,5.97
2018-09-17T03:44:07.434Z,6.65
2018-09-17T03:45:11.560Z,6.00
2018-09-17T03:46:15.739Z,5.58
2018-09-17T03:47:19.810Z,5.67
2018-09-17T03:48:23.936Z,5.67
2018-09-17T03:49:27.960Z,6.12
2018-09-17T03:50:32.084Z,5.83
2018-09-17T03:51:36.198Z,5.40
2018-09-17T03:52:40.311Z,5.75
2018-09-17T03:53:44.377Z,5.90
2018-09-17T03:54:48.514Z,5.45
2018-09-17T03:55:52.645Z,5.97
2018-09-17T03:56:56.697Z,6.17
2018-09-17T03:58:00.812Z,5.65
2018-09-17T03:59:04.845Z,5.53
2018-09-17T04:00:08.910Z,5.30
2018-09-17T04:01:13.052Z,5.62
2018-09-17T04:02:17.152Z,5.42
2018-09-17T04:03:21.484Z,5.33
2018-09-17T04:04:25.593Z,5.78
2018-09-17T04:05:29.708Z,5.78
2018-09-17T04:06:33.855Z,5.20
2018-09-17T04:07:37.955Z,5.60
2018-09-17T04:08:42.015Z,5.50
2018-09-17T04:09:46.124Z,5.80
2018-09-17T04:10:50.251Z,5.42
2018-09-17T04:11:54.493Z,5.53
2018-09-17T04:12:58.743Z,5.47
2018-09-17T04:14:02.859Z,6.20
2018-09-17T04:15:07.008Z,5.40
2018-09-17T04:16:11.167Z,5.37
2018-09-17T04:17:15.312Z,6.10
2018-09-17T04:18:19.359Z,6.05
2018-09-17T04:19:23.367Z,5.80
2018-09-17T04:20:27.742Z,6.05
2018-09-17T04:21:31.890Z,5.37
2018-09-17T04:22:35.996Z,5.95
2018-09-17T04:23:40.055Z,5.50
2018-09-17T04:24:44.175Z,5.75
2018-09-17T04:25:48.283Z,5.50
2018-09-17T04:26:52.486Z,5.50
2018-09-17T04:27:56.736Z,5.50
2018-09-17T04:29:00.859Z,5.15
2018-09-17T04:30:04.916Z,5.40
2018-09-17T04:31:09.074Z,5.67
2018-09-17T04:32:13.118Z,5.58
2018-09-17T04:33:17.213Z,6.00
2018-09-17T04:34:21.299Z,5.67
2018-09-17T04:35:25.477Z,5.42
2018-09-17T04:36:29.511Z,6.12
2018-09-17T04:37:33.548Z,6.12
2018-09-17T04:38:37.617Z,5.90
2018-09-17T04:39:41.669Z,5.40
2018-09-17T04:40:45.799Z,6.10
2018-09-17T04:41:49.935Z,5.80
2018-09-17T04:42:54.070Z,6.12
2018-09-17T04:43:58.213Z,6.00
2018-09-17T04:45:02.322Z,6.08
2018-09-17T04:46:06.465Z,5.95
2018-09-17T04:47:10.610Z,5.97
2018-09-17T04:48:15.024Z,5.25
2018-09-17T04:49:19.219Z,6.03
2018-09-17T04:50:23.378Z,5.50
2018-09-17T04:51:27.530Z,5.72
2018-09-17T04:52:32.415Z,6.30
2018-09-17T04:53:36.582Z,5.53
2018-09-17T04:54:40.657Z,5.40
2018-09-17T04:55:45.041Z,5.87
2018-09-17T04:56:49.137Z,5.90
2018-09-17T04:57:53.353Z,5.15
2018-09-17T04:58:57.434Z,5.45
2018-09-17T05:00:01.595Z,5.67
2018-09-17T05:01:05.667Z,5.80
2018-09-17T05:02:09.776Z,5.33
2018-09-17T05:03:13.828Z,5.72
2018-09-17T05:04:18.043Z,5.40
2018-09-17T05:05:22.124Z,5.40
2018-09-17T05:06:26.245Z,5.58
2018-09-17T05:07:30.390Z,5.40
2018-09-17T05:08:34.468Z,5.78
2018-09-17T05:09:38.729Z,5.83
2018-09-17T05:10:42.771Z,5.50
2018-09-17T05:11:46.886Z,5.12
2018-09-17T05:12:51.107Z,5.60
2018-09-17T05:13:55.148Z,6.03
2018-09-17T05:14:59.162Z,5.28
2018-09-17T05:16:03.387Z,5.55
2018-09-17T05:17:07.536Z,5.37
2018-09-17T05:18:11.622Z,5.20
2018-09-17T05:19:15.790Z,5.28
2018-09-17T05:20:19.899Z,5.33
2018-09-17T05:21:24.089Z,5.85
2018-09-17T05:22:28.261Z,6.22
2018-09-17T05:23:32.385Z,5.33
2018-09-17T05:25:46.897Z,5.90
2018-09-17T05:26:51.047Z,5.80
2018-09-17T05:27:55.063Z,5.62
2018-09-17T05:28:59.181Z,5.62
2018-09-17T05:30:03.374Z,5.12
2018-09-17T05:31:07.453Z,5.08
2018-09-17T05:32:11.573Z,4.95
2018-09-17T05:33:15.704Z,5.10
2018-09-17T05:34:19.945Z,5.00
2018-09-17T05:35:24.038Z,5.42
2018-09-17T05:36:28.432Z,5.08
2018-09-17T05:37:32.535Z,5.33
2018-09-17T05:38:36.701Z,5.42
2018-09-17T05:39:40.756Z,5.12
2018-09-17T05:40:44.886Z,5.17
2018-09-17T05:41:49.040Z,5.25
2018-09-17T05:42:53.166Z,5.22
2018-09-17T05:43:57.845Z,5.40
2018-09-17T05:45:02.030Z,4.97
2018-09-17T05:46:06.208Z,4.92
2018-09-17T05:47:10.381Z,5.12
2018-09-17T05:48:14.529Z,5.10
2018-09-17T05:49:18.660Z,5.50
2018-09-17T05:50:22.763Z,5.60
2018-09-17T05:51:26.932Z,5.42
2018-09-17T05:52:31.095Z,5.22
2018-09-17T05:53:35.122Z,5.40
2018-09-17T05:54:39.223Z,5.45
2018-09-17T05:55:43.324Z,5.42
2018-09-17T05:56:47.382Z,5.30
2018-09-17T05:57:51.464Z,5.53
2018-09-17T05:58:55.790Z,5.30
2018-09-17T06:00:00.104Z,5.00
2018-09-17T06:01:04.441Z,5.60
2018-09-17T06:02:08.731Z,6.10
2018-09-17T06:03:12.885Z,5.62
2018-09-17T06:04:16.991Z,5.60
2018-09-17T06:05:21.084Z,5.78
2018-09-17T06:06:25.524Z,5.40
2018-09-17T06:07:29.663Z,5.37
2018-09-17T06:08:33.766Z,5.42
2018-09-17T06:09:38.101Z,5.08
2018-09-17T06:10:42.168Z,5.70
2018-09-17T06:11:46.330Z,5.67
2018-09-17T06:12:50.404Z,5.30
2018-09-17T06:13:54.505Z,5.78
2018-09-17T06:14:58.649Z,5.35
2018-09-17T06:16:02.768Z,4.95
2018-09-17T06:17:06.940Z,5.53
2018-09-17T06:18:10.988Z,5.33
2018-09-17T06:19:15.133Z,5.25
2018-09-17T06:20:19.247Z,4.92
2018-09-17T06:21:23.317Z,4.97
2018-09-17T06:22:27.474Z,4.90
2018-09-17T06:23:31.622Z,4.95
2018-09-17T06:24:35.728Z,5.10
2018-09-17T06:25:39.827Z,5.12
2018-09-17T06:26:44.015Z,6.05
2018-09-17T06:27:48.296Z,5.08
2018-09-17T06:28:52.678Z,5.08
2018-09-17T06:29:56.851Z,5.30
2018-09-17T06:31:01.026Z,5.17
2018-09-17T06:32:05.260Z,5.03
2018-09-17T06:33:09.406Z,5.03
2018-09-17T06:34:13.581Z,5.08
2018-09-17T06:35:17.603Z,5.40
2018-09-17T06:36:21.876Z,5.30
2018-09-17T06:37:25.877Z,5.05
2018-09-17T06:38:30.202Z,5.15
2018-09-17T06:39:34.376Z,5.35
2018-09-17T06:40:38.584Z,4.87
2018-09-17T06:41:42.725Z,4.83
2018-09-17T06:42:46.782Z,4.87
2018-09-17T06:43:50.827Z,5.17
2018-09-17T06:44:55.048Z,4.83
2018-09-17T06:45:59.286Z,5.00
2018-09-17T06:47:03.410Z,5.30
2018-09-17T06:48:07.592Z,5.30
2018-09-17T06:49:11.697Z,5.45
2018-09-17T06:50:15.786Z,5.15
2018-09-17T06:51:19.865Z,5.45
2018-09-17T06:52:23.930Z,5.28
2018-09-17T06:53:28.078Z,5.67
2018-09-17T06:54:32.204Z,5.30
2018-09-17T06:55:36.268Z,5.60
2018-09-17T06:56:40.371Z,5.55
2018-09-17T06:57:44.568Z,4.95
2018-09-17T06:58:49.145Z,4.97
2018-09-17T06:59:53.352Z,5.22
2018-09-17T07:00:57.544Z,5.00
2018-09-17T07:02:01.808Z,5.30
2018-09-17T07:03:06.201Z,5.05
2018-09-17T07:04:10.315Z,5.15
2018-09-17T07:05:14.517Z,5.35
2018-09-17T07:06:18.739Z,5.37
2018-09-17T07:07:22.850Z,5.67
2018-09-17T07:08:27.079Z,5.87
2018-09-17T07:09:31.185Z,5.78
2018-09-17T07:10:35.308Z,6.70
2018-09-17T07:11:40.186Z,6.10
2018-09-17T07:12:44.215Z,5.70
2018-09-17T07:13:48.427Z,6.30
2018-09-17T07:14:52.529Z,6.42
2018-09-17T07:15:56.613Z,6.53
2018-09-17T07:17:00.729Z,6.67
2018-09-17T07:18:04.813Z,6.65
2018-09-17T07:19:08.906Z,7.25
2018-09-17T07:20:13.027Z,7.33
2018-09-17T07:21:17.150Z,7.40
2018-09-17T07:22:21.436Z,6.83
2018-09-17T07:23:25.532Z,7.00
2018-09-17T07:24:29.761Z,6.80
2018-09-17T07:25:33.971Z,6.75
2018-09-17T07:26:38.172Z,6.50
2018-09-17T07:27:42.327Z,6.67
2018-09-17T07:28:46.432Z,6.80
2018-09-17T07:29:50.726Z,6.50
2018-09-17T07:30:54.859Z,5.80
2018-09-17T07:31:58.957Z,7.00
2018-09-17T07:33:03.056Z,6.80
2018-09-17T07:34:07.269Z,6.95
2018-09-17T07:35:11.420Z,6.47
2018-09-17T07:36:15.610Z,6.75
2018-09-17T07:37:19.652Z,6.78
2018-09-17T07:38:23.869Z,7.03
2018-09-17T07:39:28.090Z,6.37
2018-09-17T07:40:32.275Z,7.47
2018-09-17T07:41:36.701Z,7.25
2018-09-17T07:42:40.815Z,7.87
2018-09-17T07:43:44.894Z,7.92
2018-09-17T07:44:49.048Z,7.53
2018-09-17T07:45:53.250Z,7.33
2018-09-17T07:46:57.437Z,7.72
2018-09-17T07:48:01.522Z,7.53
2018-09-17T07:49:05.704Z,7.67
2018-09-17T07:50:09.868Z,7.53
2018-09-17T07:51:14.224Z,7.83
2018-09-17T07:52:18.424Z,8.08
2018-09-17T07:53:22.564Z,8.00
2018-09-17T07:54:26.796Z,7.22
2018-09-17T07:55:30.966Z,7.97
2018-09-17T07:56:35.143Z,7.42
2018-09-17T07:57:39.318Z,8.25
2018-09-17T07:58:50.242Z,8.33
2018-09-17T07:59:54.439Z,8.30
2018-09-17T08:00:58.604Z,7.87
2018-09-17T08:02:02.822Z,8.15
2018-09-17T08:03:06.968Z,8.28
2018-09-17T08:04:11.222Z,8.18
2018-09-17T08:05:15.632Z,7.65
2018-09-17T08:06:19.860Z,7.65
2018-09-17T08:07:24.125Z,7.55
2018-09-17T08:08:28.206Z,7.30
2018-09-17T08:09:32.292Z,7.17
2018-09-17T08:10:36.436Z,7.12
2018-09-17T08:11:40.838Z,7.67
2018-09-17T08:12:45.135Z,7.00
2018-09-17T08:13:49.381Z,7.60
2018-09-17T08:14:53.472Z,7.40
2018-09-17T08:15:57.564Z,7.10
2018-09-17T08:17:01.885Z,7.30
2018-09-17T08:18:06.015Z,7.40
2018-09-17T08:19:10.145Z,7.03
2018-09-17T08:20:14.240Z,6.50
2018-09-17T08:21:18.330Z,5.93
2018-09-17T08:22:22.470Z,6.50
2018-09-17T08:23:26.555Z,7.33
2018-09-17T08:24:30.711Z,7.00
2018-09-17T08:25:34.861Z,6.97
2018-09-17T08:26:38.918Z,6.47
2018-09-17T08:27:43.008Z,6.57
2018-09-17T08:28:47.144Z,6.27
2018-09-17T08:29:51.198Z,6.27
2018-09-17T08:30:55.302Z,6.67
2018-09-17T08:31:59.358Z,6.20
2018-09-17T08:33:03.530Z,7.43
2018-09-17T08:34:07.602Z,6.73
2018-09-17T08:35:11.645Z,6.00
2018-09-17T08:36:15.942Z,7.20
2018-09-17T08:37:20.094Z,7.00
2018-09-17T08:38:24.213Z,7.20
2018-09-17T08:39:28.468Z,8.10
2018-09-17T08:40:32.659Z,7.30
2018-09-17T08:41:37.021Z,6.97
2018-09-17T08:42:41.627Z,7.83
2018-09-17T08:43:45.984Z,7.07
2018-09-17T08:44:50.366Z,7.80
2018-09-17T08:45:54.503Z,7.57
2018-09-17T08:46:58.628Z,7.40
2018-09-17T08:48:02.774Z,7.00
2018-09-17T08:49:07.055Z,6.90
2018-09-17T08:50:11.133Z,7.10
2018-09-17T08:51:15.309Z,7.00
2018-09-17T08:52:19.683Z,6.80
2018-09-17T08:53:24.202Z,7.53
2018-09-17T08:54:28.381Z,6.53
2018-09-17T08:55:37.969Z,6.30
2018-09-17T08:56:44.916Z,5.93
2018-09-17T08:57:54.502Z,6.90
2018-09-17T08:58:59.329Z,6.20
2018-09-17T09:00:10.111Z,7.57
2018-09-17T09:01:19.601Z,6.37
2018-09-17T09:02:29.024Z,6.47
2018-09-17T09:03:39.660Z,5.77
2018-09-17T09:04:49.368Z,6.23
2018-09-17T09:05:58.876Z,5.97
2018-09-17T09:07:08.186Z,6.47
2018-09-17T09:08:12.410Z,6.07
2018-09-17T09:09:16.543Z,6.30
2018-09-17T09:10:26.634Z,6.40
2018-09-17T09:11:36.175Z,6.50
2018-09-17T09:12:41.217Z,5.63
2018-09-17T09:13:50.406Z,5.87
2018-09-17T09:14:55.428Z,5.40
2018-09-17T09:15:59.675Z,5.80
2018-09-17T09:17:03.824Z,5.73
2018-09-17T09:18:08.936Z,5.73
2018-09-17T09:19:13.072Z,5.37
2018-09-17T09:20:17.363Z,4.93
2018-09-17T09:21:21.611Z,5.20
2018-09-17T09:22:25.908Z,5.27
2018-09-17T09:23:30.248Z,5.27
2018-09-17T09:24:34.716Z,5.57
2018-09-17T09:25:38.866Z,5.30
2018-09-17T09:26:43.243Z,4.67
2018-09-17T09:27:47.312Z,4.70
2018-09-17T09:28:51.381Z,4.80
2018-09-17T09:29:55.456Z,5.10
2018-09-17T09:30:59.590Z,4.60
2018-09-17T09:32:03.685Z,4.73
2018-09-17T09:33:07.924Z,5.30
2018-09-17T09:34:12.057Z,4.80
2018-09-17T09:35:16.948Z,4.87
2018-09-17T09:36:21.133Z,5.13
2018-09-17T09:37:25.328Z,4.90
2018-09-17T09:38:29.468Z,5.17
2018-09-17T09:39:33.627Z,4.97
2018-09-17T09:40:37.813Z,4.97
2018-09-17T09:41:42.090Z,5.37
2018-09-17T09:42:46.203Z,4.87
2018-09-17T09:43:50.364Z,4.67
2018-09-17T09:44:54.200Z,4.57
2018-09-17T09:45:58.309Z,4.67
2018-09-17T09:47:02.458Z,4.10
2018-09-17T09:48:06.635Z,4.67
2018-09-17T09:49:10.814Z,4.67
2018-09-17T09:50:14.939Z,4.73
2018-09-17T09:51:19.232Z,4.53
2018-09-17T09:52:23.310Z,4.40
2018-09-17T09:53:27.370Z,4.90
2018-09-17T09:54:31.958Z,4.43
2018-09-17T09:55:36.281Z,4.80
2018-09-17T09:56:40.363Z,4.73
2018-09-17T09:57:44.415Z,4.30
2018-09-17T09:58:48.797Z,4.70
2018-09-17T09:59:53.015Z,4.20
2018-09-17T10:01:02.718Z,4.63
2018-09-17T10:02:12.549Z,3.87
2018-09-17T10:03:20.904Z,4.40
2018-09-17T10:04:25.372Z,3.97
2018-09-17T10:05:30.298Z,4.00
2018-09-17T10:06:34.555Z,4.27
2018-09-17T10:07:38.657Z,4.07
2018-09-17T10:08:48.205Z,4.20
2018-09-17T10:09:57.784Z,4.00
2018-09-17T10:11:07.285Z,4.20
2018-09-17T10:12:16.867Z,3.87
2018-09-17T10:13:26.626Z,3.80
2018-09-17T10:14:36.069Z,3.53
2018-09-17T10:15:45.662Z,3.57
2018-09-17T10:16:55.423Z,3.60
2018-09-17T10:18:05.137Z,3.77
2018-09-17T10:19:14.771Z,3.80
2018-09-17T10:20:18.870Z,4.20
2018-09-17T10:21:24.012Z,5.83
2018-09-17T10:22:28.296Z,6.40
2018-09-17T10:23:32.374Z,4.10
2018-09-17T10:24:36.671Z,4.13
2018-09-17T10:25:40.784Z,3.70
2018-09-17T10:26:44.945Z,3.77
2018-09-17T10:27:49.036Z,3.77
2018-09-17T10:28:53.332Z,3.70
2018-09-17T10:29:57.542Z,3.30
2018-09-17T10:31:01.631Z,4.00
2018-09-17T10:32:06.167Z,3.60
2018-09-17T10:33:10.235Z,3.27
2018-09-17T10:34:14.506Z,3.40
2018-09-17T10:35:19.101Z,3.63
2018-09-17T10:36:23.236Z,3.80
2018-09-17T10:37:27.567Z,4.13
2018-09-17T10:38:31.629Z,4.00
2018-09-17T10:39:35.850Z,3.77
2018-09-17T10:40:40.110Z,3.93
2018-09-17T10:41:44.247Z,3.50
2018-09-17T10:42:48.361Z,3.37
2018-09-17T10:43:52.447Z,3.20
2018-09-17T10:44:56.193Z,3.60
2018-09-17T10:46:00.171Z,3.50
2018-09-17T10:47:04.225Z,3.50
2018-09-17T10:48:09.278Z,3.42
2018-09-17T10:49:13.343Z,3.62
2018-09-17T10:50:17.422Z,3.27
2018-09-17T10:51:21.528Z,3.30
2018-09-17T10:52:25.709Z,3.42
2018-09-17T10:53:29.795Z,3.33
2018-09-17T10:54:34.164Z,3.55
2018-09-17T10:55:38.807Z,3.00
2018-09-17T10:56:43.046Z,3.55
2018-09-17T10:57:47.197Z,3.50
2018-09-17T10:58:51.330Z,3.27
2018-09-17T10:59:55.416Z,3.00
2018-09-17T11:00:59.522Z,2.95
2018-09-17T11:02:03.911Z,3.22
2018-09-17T11:03:08.077Z,3.08
2018-09-17T11:04:12.174Z,3.30
2018-09-17T11:05:16.287Z,3.22
2018-09-17T11:06:20.355Z,3.40
2018-09-17T11:07:24.567Z,3.50
2018-09-17T11:08:28.666Z,3.20
2018-09-17T11:09:32.741Z,3.30
2018-09-17T11:10:37.021Z,3.30
2018-09-17T11:11:41.521Z,3.47
2018-09-17T11:12:45.761Z,3.40
2018-09-17T11:13:49.844Z,2.80
2018-09-17T11:15:00.551Z,3.00
2018-09-17T11:16:04.672Z,3.35
2018-09-17T11:17:08.907Z,3.33
2018-09-17T11:18:12.996Z,2.80
2018-09-17T11:19:17.122Z,3.12
2018-09-17T11:20:21.250Z,2.90
2018-09-17T11:21:25.409Z,3.33
2018-09-17T11:22:29.480Z,3.22
2018-09-17T11:23:33.763Z,3.02
2018-09-17T11:24:37.860Z,3.37
2018-09-17T11:25:42.030Z,3.40
2018-09-17T11:26:46.245Z,3.50
2018-09-17T11:27:50.311Z,3.30
2018-09-17T11:28:54.574Z,3.25
2018-09-17T11:30:00.033Z,3.25
2018-09-17T11:31:04.230Z,3.40
2018-09-17T11:32:08.282Z,3.40
2018-09-17T11:33:12.594Z,3.52
2018-09-17T11:34:16.749Z,3.50
2018-09-17T11:35:20.836Z,3.25
2018-09-17T11:36:31.628Z,3.25
2018-09-17T11:37:35.840Z,3.37
2018-09-17T11:38:39.904Z,3.58
2018-09-17T11:39:44.203Z,3.25
2018-09-17T11:40:48.651Z,3.25
2018-09-17T11:41:52.852Z,3.05
2018-09-17T11:42:57.239Z,2.83
2018-09-17T11:44:01.568Z,2.92
2018-09-17T11:45:12.520Z,3.30
2018-09-17T11:46:16.561Z,3.30
2018-09-17T11:47:20.639Z,3.27
2018-09-17T11:48:24.818Z,3.20
2018-09-17T11:49:28.731Z,3.45
2018-09-17T11:50:32.652Z,3.45
2018-09-17T11:51:36.875Z,3.40
2018-09-17T11:52:41.015Z,3.70
2018-09-17T11:53:45.305Z,3.40
2018-09-17T11:54:49.452Z,3.37
2018-09-17T11:55:53.504Z,3.22
2018-09-17T11:56:57.748Z,3.60
2018-09-17T11:58:02.116Z,3.22
2018-09-17T11:59:06.272Z,3.35
2018-09-17T12:00:10.397Z,3.25
2018-09-17T12:01:19.990Z,3.40
2018-09-17T12:02:29.627Z,3.20
2018-09-17T12:03:39.040Z,3.08
2018-09-17T12:04:48.537Z,3.50
2018-09-17T12:05:58.777Z,3.17
2018-09-17T12:07:08.351Z,3.33
2018-09-17T12:08:14.464Z,3.60
2018-09-17T12:09:18.642Z,3.67
2018-09-17T12:10:22.706Z,3.98
2018-09-17T12:11:26.780Z,3.50
2018-09-17T12:12:30.931Z,3.47
2018-09-17T12:13:35.066Z,3.40
2018-09-17T12:14:39.196Z,3.42
2018-09-17T12:15:44.014Z,3.70
2018-09-17T12:16:48.309Z,3.22
2018-09-17T12:17:52.380Z,3.60
2018-09-17T12:18:56.507Z,3.50
2018-09-17T12:20:00.571Z,3.25
2018-09-17T12:21:04.649Z,3.25
2018-09-17T12:22:08.843Z,3.50
2018-09-17T12:23:13.050Z,3.25
2018-09-17T12:24:17.189Z,3.40
2018-09-17T12:25:21.511Z,3.15
2018-09-17T12:26:25.971Z,3.30
2018-09-17T12:27:30.019Z,3.47
2018-09-17T12:28:34.130Z,3.00
2018-09-17T12:29:38.238Z,3.45
2018-09-17T12:30:42.337Z,3.42
2018-09-17T12:31:46.459Z,3.33
2018-09-17T12:32:50.700Z,3.22
2018-09-17T12:33:54.959Z,3.25
2018-09-17T12:34:59.162Z,3.40
2018-09-17T12:36:03.813Z,3.40
2018-09-17T12:37:07.382Z,3.40
2018-09-17T12:38:11.464Z,3.52
2018-09-17T12:39:15.613Z,3.33
2018-09-17T12:40:19.615Z,3.40
2018-09-17T12:41:23.760Z,3.40
2018-09-17T12:42:28.078Z,3.58
2018-09-17T12:43:32.174Z,3.42
2018-09-17T12:44:36.359Z,3.20
2018-09-17T12:45:40.486Z,3.20
2018-09-17T12:46:44.655Z,3.37
2018-09-17T12:47:48.754Z,3.25
2018-09-17T12:48:52.905Z,3.55
2018-09-17T12:49:57.472Z,3.72
2018-09-17T12:51:01.852Z,4.25
2018-09-17T12:52:06.162Z,3.60
2018-09-17T12:53:10.309Z,3.70
2018-09-17T12:54:14.593Z,3.60
2018-09-17T12:55:19.429Z,3.55
2018-09-17T12:56:23.530Z,3.45
2018-09-17T12:57:27.622Z,3.50
2018-09-17T12:58:32.625Z,3.30
2018-09-17T12:59:36.797Z,3.60
2018-09-17T13:00:41.271Z,3.42
2018-09-17T13:01:45.424Z,3.22
2018-09-17T13:02:49.680Z,3.33
2018-09-17T13:03:53.840Z,3.60
2018-09-17T13:04:58.170Z,4.00
2018-09-17T13:06:02.405Z,3.37
2018-09-17T13:07:06.585Z,3.35
2018-09-17T13:08:10.742Z,3.20
2018-09-17T13:09:14.887Z,3.20
2018-09-17T13:10:18.977Z,3.35
2018-09-17T13:11:23.208Z,3.37
2018-09-17T13:12:27.632Z,3.00
2018-09-17T13:13:31.777Z,2.87
2018-09-17T13:14:35.894Z,3.75
2018-09-17T13:15:45.240Z,3.35
2018-09-17T13:16:49.439Z,3.20
2018-09-17T13:17:53.979Z,3.42
2018-09-17T13:18:58.529Z,3.33
2018-09-17T13:20:09.448Z,3.30
2018-09-17T13:21:13.791Z,3.20
2018-09-17T13:22:18.026Z,3.50
2018-09-17T13:23:22.423Z,3.37
2018-09-17T13:24:26.552Z,3.00
2018-09-17T13:25:30.678Z,3.33
2018-09-17T13:26:34.802Z,3.33
2018-09-17T13:27:38.914Z,3.20
2018-09-17T13:28:42.990Z,3.05
2018-09-17T13:29:47.274Z,3.60
2018-09-17T13:30:51.382Z,3.12
2018-09-17T13:31:55.579Z,3.05
2018-09-17T13:32:59.615Z,2.98
2018-09-17T13:34:04.079Z,3.00
2018-09-17T13:35:08.412Z,2.98
2018-09-17T13:36:13.044Z,2.98
2018-09-17T13:37:17.395Z,3.00
2018-09-17T13:38:22.059Z,3.12
2018-09-17T13:39:26.106Z,3.40
2018-09-17T13:40:30.639Z,3.27
2018-09-17T13:41:34.776Z,3.60
2018-09-17T13:42:38.992Z,3.35
2018-09-17T13:43:43.067Z,2.92
2018-09-17T13:44:47.124Z,3.30
2018-09-17T13:45:51.354Z,3.40
2018-09-17T13:46:55.495Z,3.55
2018-09-17T13:48:00.306Z,3.50
2018-09-17T13:49:04.478Z,3.42
2018-09-17T13:50:08.580Z,3.37
2018-09-17T13:51:12.825Z,3.17
2018-09-17T13:52:17.237Z,3.25
2018-09-17T13:53:21.717Z,3.35
2018-09-17T13:54:25.854Z,3.25
2018-09-17T13:55:29.958Z,3.10
2018-09-17T13:56:34.235Z,3.20
2018-09-17T13:57:38.297Z,3.25
2018-09-17T13:58:42.810Z,3.55
2018-09-17T13:59:47.237Z,3.42
2018-09-17T14:00:51.499Z,3.42
2018-09-17T14:01:55.919Z,3.70
2018-09-17T14:03:00.026Z,3.25
2018-09-17T14:04:04.086Z,3.55
2018-09-17T14:05:08.435Z,3.72
2018-09-17T14:06:12.768Z,3.27
2018-09-17T14:07:16.893Z,3.30
2018-09-17T14:08:21.023Z,3.17
2018-09-17T14:09:25.091Z,3.30
2018-09-17T14:10:29.877Z,3.10
2018-09-17T14:11:33.968Z,3.25
2018-09-17T14:12:38.130Z,3.65
2018-09-17T14:13:43.025Z,3.33
2018-09-17T14:14:47.166Z,3.60
2018-09-17T14:15:56.683Z,3.17
2018-09-17T14:17:00.880Z,3.47
2018-09-17T14:18:05.236Z,3.50
2018-09-17T14:19:09.372Z,4.37
2018-09-17T14:20:13.524Z,5.67